• Join FlightAware (Why Join?)
  • Login
  • US Flag 
05:54AM EDT


 

Airport Tracker/Info


-or-


 

Live Flight TrackerFlight Track Log ✈ FLG3861 ✈ 13-Nov-2013 ✈ KDTW - KBGM

Flight Track Log - Related Links

Times and Time Zones

All times are in EST time to prevent confusion due to time zone crossing. See the FLG3861 flight status page for this flight to view local times or setup timezone preferences in your user account.

Time Position Orientation Groundspeed Altitude Reporting Facility
EST Latitude Longitude Course Direction KTS MPH feet Rate Location/Type
09:49PM 42.2094 -83.3506 179° South 139 160 1,200  Level Cleveland Center
09:49PM 42.1864 -83.3503 179° South 159 183 2,800 1,800 Climbing Cleveland Center
09:50PM 42.1561 -83.3361 161° South 180 207 3,700 1,620 Climbing Cleveland Center
09:50PM 42.1397 -83.3297 164° South 219 252 4,300 1,860 Climbing Cleveland Center
09:51PM 42.0922 -83.2947 151° Southeast 256 295 5,600 2,160 Climbing Cleveland Center
09:51PM 42.0781 -83.2339 107° East 325 374 7,200 3,180 Climbing Cleveland Center
09:52PM 42.0942 -83.1669 72° East 310 357 8,900 2,220 Climbing Cleveland Center
09:53PM 42.1356 -83.0642 61° Northeast 316 364 10,800 1,800 Climbing Cleveland Center
09:54PM 42.1811 -82.9456 63° Northeast 355 409 12,600 1,440 Climbing Cleveland Center
09:55PM 42.2292 -82.8194 63° Northeast 378 435 13,800 1,260 Climbing Cleveland Center
09:56PM 42.2794 -82.6864 63° Northeast 397 457 15,200 1,260 Climbing Cleveland Center
09:57PM 42.3306 -82.5517 63° Northeast 404 465 16,500 1,200 Climbing Cleveland Center
09:58PM 42.3656 -82.4067 72° East 421 484 17,700 1,080 Climbing Cleveland Center
09:59PM 42.3583 -82.2122 93° East 430 495 18,800 960 Climbing Cleveland Center
10:00PM 42.3514 -82.0594 93° East 434 499 19,700 900 Climbing Cleveland Center
10:01PM 42.3444 -81.8919 93° East 442 509 20,700 1,020 Climbing Cleveland Center
10:02PM 42.3369 -81.7253 93° East 440 506 21,800 1,020 Climbing Cleveland Center
10:03PM 42.3289 -81.5575 94° East 442 509 22,800 960 Climbing Cleveland Center
10:04PM 42.3206 -81.3900 94° East 442 509 23,800 960 Climbing Cleveland Center
10:05PM 42.3131 -81.2225 93° East 441 507 24,800 960 Climbing Cleveland Center
10:06PM 42.3025 -81.0261 94° East 443 510 25,800 780 Climbing Cleveland Center
10:07PM 42.2936 -80.8556 94° East 450 518 26,500 540 Climbing Cleveland Center
10:08PM 42.2847 -80.6844 94° East 451 519 27,000 240 Climbing Cleveland Center
10:09PM 42.2747 -80.5108 94° East 458 527 27,000  Level Cleveland Center
10:10PM 42.2647 -80.3294 94° East 475 547 27,000  Level Cleveland Center
10:11PM 42.2542 -80.1478 94° East 482 555 27,000  Level Cleveland Center
10:12PM 42.2436 -79.9714 95° East 483 556 27,000  Level Cleveland Center
10:13PM 42.2319 -79.7922 95° East 482 555 27,000  Level Cleveland Center
10:14PM 42.2200 -79.6094 95° East 490 564 27,000  Level Cleveland Center
10:15PM 42.2081 -79.4253 95° East 493 567 27,000  Level Cleveland Center
10:17PM 42.1933 -79.2047 95° East 494 568 27,000  Level Cleveland Center
10:18PM 42.1906 -79.0203 91° East 495 570 27,000  Level Cleveland Center
10:19PM 42.1933 -78.8650 89° East 485 558 27,000  Level Cleveland Center
10:20PM 42.1972 -78.6483 89° East 482 555 27,000  Level Cleveland Center
10:21PM 42.2000 -78.4708 89° East 479 551 27,000  Level Cleveland Center
10:22PM 42.2019 -78.2922 89° East 480 552 27,000  Level Cleveland Center
10:23PM 42.2036 -78.1158 89° East 477 549 27,000  Level Cleveland Center
10:24PM 42.2053 -77.9406 89° East 472 543 27,000 -540 Level Cleveland Center
10:25PM 42.2075 -77.7636 89° East 477 549 25,900 -1,320 Descending Cleveland Center
10:26PM 42.2083 -77.5858 90° East 479 551 24,400 -1,620 Descending Cleveland Center
10:27PM 42.2097 -77.3758 89° East 473 544 22,600 -1,620 Descending Cleveland Center
10:28PM 42.2097 -77.2033 90° East 467 537 21,100 -1,500 Descending Cleveland Center
10:28PM 42.2111 -77.0953 89° East 473 544 20,100 -1,800 Descending New York Center
10:29PM 42.2089 -76.9383 91° East 446 513 18,100 -1,860 Descending New York Center
10:30PM 42.1814 -76.7847 104° East 426 490 16,400 -2,040 Descending New York Center
10:31PM 42.1789 -76.6250 91° East 401 461 14,100 -2,160 Descending New York Center
10:32PM 42.1958 -76.4894 80° East 382 440 12,100 -2,220 Descending New York Center
10:33PM 42.2139 -76.3733 78° East 350 403 9,700 -2,760 Descending New York Center
10:34PM 42.2336 -76.2603 77° East 325 374 6,600 -2,700 Descending New York Center
10:35PM 42.2489 -76.1550 79° East 301 346 4,400 -1,800 Descending New York Center
10:36PM 42.2678 -76.0586 75° East 278 320 3,000 -900 Descending New York Center
10:37PM 42.2492 -76.0094 117° Southeast 169 194 2,700 -360 Descending New York Center
10:38PM 42.2386 -75.9636 107° East 154 177 2,300 -420 Descending New York Center